Elizabeth, Mississippi
Current Conditions -  °F | °C
As of 8:37 AM on Sunday 23 Nov 2014 (Local Time) from KGLH Reporting Station
Haze Haze  
Wind Chill: 60°   Ceiling: 500
Heat Index: 60°   Visibility: 2mi
Dew Point: 59°   Wind: 12mph
Humidity: 96%   Direction: 110°ESE
Pressure: 29.62"   Gusts: NA
Location:  33.4469°N, 90.8665°W
Report Text: KGLH 231437Z AUTO 11010KT 2SM BR BKN005 16/15 A2962 RMK AO2 P0015 T01560150
Loading
Personal Weather Stations






























Interactive Weather Map New forecast layout! Learn more

10-Day Weather Forecast

Advertisements
Track Severe Weather on mobile